createdAt,value
2018-11-02T00:00:11.114Z,3.60
2018-11-02T00:01:11.118Z,2.60
2018-11-02T00:02:11.001Z,2.60
2018-11-02T00:03:11.139Z,2.50
2018-11-02T00:04:10.950Z,2.60
2018-11-02T00:05:10.921Z,2.40
2018-11-02T00:06:10.952Z,3.20
2018-11-02T00:07:10.961Z,2.60
2018-11-02T00:08:10.854Z,2.40
2018-11-02T00:09:10.968Z,2.50
2018-11-02T00:10:10.980Z,2.50
2018-11-02T00:11:10.774Z,2.40
2018-11-02T00:12:10.920Z,2.40
2018-11-02T00:13:10.717Z,2.10
2018-11-02T00:14:10.801Z,2.30
2018-11-02T00:15:10.671Z,2.50
2018-11-02T00:16:10.637Z,3.00
2018-11-02T00:17:10.725Z,2.50
2018-11-02T00:18:10.589Z,2.20
2018-11-02T00:19:10.745Z,3.00
2018-11-02T00:20:10.547Z,2.20
2018-11-02T00:21:10.511Z,2.60
2018-11-02T00:22:10.492Z,2.60
2018-11-02T00:23:10.565Z,1.80
2018-11-02T00:24:10.441Z,2.30
2018-11-02T00:25:10.588Z,2.30
2018-11-02T00:26:10.585Z,2.30
2018-11-02T00:27:10.365Z,2.30
2018-11-02T00:28:10.512Z,2.60
2018-11-02T00:29:10.317Z,2.10
2018-11-02T00:30:10.418Z,2.60
2018-11-02T00:31:10.268Z,2.20
2018-11-02T00:32:10.231Z,2.00
2018-11-02T00:33:10.338Z,2.20
2018-11-02T00:34:10.187Z,2.40
2018-11-02T00:35:10.346Z,2.80
2018-11-02T00:36:10.128Z,3.30
2018-11-02T00:37:10.107Z,2.20
2018-11-02T00:38:10.081Z,2.80
2018-11-02T00:39:10.277Z,2.90
2018-11-02T00:40:10.032Z,2.20
2018-11-02T00:41:10.185Z,2.40
2018-11-02T00:42:09.982Z,2.00
2018-11-02T00:43:10.092Z,2.60
2018-11-02T00:44:10.081Z,2.50
2018-11-02T00:45:10.107Z,2.30
2018-11-02T00:46:09.881Z,3.50
2018-11-02T00:47:10.021Z,2.30
2018-11-02T00:48:09.828Z,2.00
2018-11-02T00:49:09.931Z,2.20
2018-11-02T00:50:09.771Z,3.00
2018-11-02T00:51:09.840Z,3.00
2018-11-02T00:52:09.718Z,2.40
2018-11-02T00:53:09.705Z,2.30
2018-11-02T00:54:09.672Z,2.40
2018-11-02T00:55:10.106Z,2.20
2018-11-02T00:56:09.622Z,2.50
2018-11-02T00:57:09.681Z,3.40
2018-11-02T00:58:09.580Z,2.30
2018-11-02T00:59:09.588Z,2.60
2018-11-02T01:00:09.567Z,2.30
2018-11-02T01:01:09.603Z,3.40
2018-11-02T01:02:09.472Z,3.60
2018-11-02T01:03:09.521Z,2.60
2018-11-02T01:04:09.417Z,3.80
2018-11-02T01:05:09.426Z,3.10
2018-11-02T01:06:09.380Z,2.80
2018-11-02T01:07:09.439Z,3.00
2018-11-02T01:08:09.316Z,3.40
2018-11-02T01:09:09.298Z,3.70
2018-11-02T01:10:09.278Z,3.30
2018-11-02T01:11:09.389Z,2.50
2018-11-02T01:12:09.221Z,3.30
2018-11-02T01:13:09.281Z,3.00
2018-11-02T01:14:09.160Z,6.10
2018-11-02T01:15:09.190Z,3.40
2018-11-02T01:16:09.106Z,2.80
2018-11-02T01:17:09.209Z,4.50
2018-11-02T01:18:09.063Z,4.00
2018-11-02T01:19:09.117Z,4.60
2018-11-02T01:20:09.118Z,3.50
2018-11-02T01:21:08.996Z,3.50
2018-11-02T01:22:09.030Z,5.00
2018-11-02T01:23:08.935Z,4.30
2018-11-02T01:24:09.049Z,4.00
2018-11-02T01:25:08.948Z,4.10
2018-11-02T01:26:08.859Z,5.30
2018-11-02T01:27:08.968Z,4.20
2018-11-02T01:28:08.817Z,4.60
2018-11-02T01:29:08.879Z,5.10
2018-11-02T01:30:08.760Z,4.10
2018-11-02T01:31:08.791Z,5.50
2018-11-02T01:32:08.700Z,5.40
2018-11-02T01:33:08.813Z,6.20
2018-11-02T01:34:08.648Z,5.10
2018-11-02T01:35:08.725Z,5.20
2018-11-02T01:36:08.605Z,4.50
2018-11-02T01:37:08.728Z,4.90
2018-11-02T01:38:08.551Z,5.50
2018-11-02T01:39:08.636Z,4.50
2018-11-02T01:40:08.501Z,5.80
2018-11-02T01:41:08.473Z,5.20
2018-11-02T01:42:08.449Z,4.90
2018-11-02T01:43:08.576Z,5.60
2018-11-02T01:44:08.390Z,5.20
2018-11-02T01:45:08.482Z,5.10
2018-11-02T01:46:08.351Z,4.90
2018-11-02T01:47:08.323Z,5.00
2018-11-02T01:48:08.407Z,5.80
2018-11-02T01:49:08.267Z,4.90
2018-11-02T01:50:08.311Z,5.50
2018-11-02T01:51:08.238Z,5.20
2018-11-02T01:52:08.186Z,6.30
2018-11-02T01:53:08.167Z,5.50
2018-11-02T01:54:08.278Z,6.70
2018-11-02T01:55:08.121Z,5.70
2018-11-02T01:56:08.250Z,6.20
2018-11-02T01:57:08.161Z,7.00
2018-11-02T01:58:08.047Z,5.20
2018-11-02T01:59:08.168Z,6.30
2018-11-02T02:00:08.015Z,7.00
2018-11-02T02:01:08.077Z,5.60
2018-11-02T02:02:07.931Z,5.80
2018-11-02T02:03:07.906Z,7.50
2018-11-02T02:04:07.997Z,6.00
2018-11-02T02:05:07.857Z,7.60
2018-11-02T02:06:07.917Z,6.50
2018-11-02T02:07:07.811Z,6.80
2018-11-02T02:08:07.790Z,7.00
2018-11-02T02:09:07.938Z,6.30
2018-11-02T02:10:07.805Z,8.00
2018-11-02T02:11:07.840Z,6.10
2018-11-02T02:12:07.686Z,7.30
2018-11-02T02:13:07.697Z,7.00
2018-11-02T02:14:07.631Z,7.20
2018-11-02T02:15:07.771Z,7.70
2018-11-02T02:16:07.584Z,7.30
2018-11-02T02:17:07.681Z,6.40
2018-11-02T02:18:07.527Z,7.40
2018-11-02T02:19:07.499Z,7.70
2018-11-02T02:20:07.601Z,10.10
2018-11-02T02:21:14.809Z,8.50
2018-11-02T02:23:00.481Z,7.80
2018-11-02T02:24:00.469Z,8.80
2018-11-02T02:25:53.342Z,8.00
2018-11-02T02:26:53.243Z,7.30
2018-11-02T02:27:53.331Z,8.20
2018-11-02T02:28:53.181Z,8.90
2018-11-02T02:29:53.161Z,8.10
2018-11-02T02:30:53.257Z,8.80
2018-11-02T02:31:53.109Z,8.80
2018-11-02T02:32:53.160Z,8.50
2018-11-02T02:33:53.067Z,9.20
2018-11-02T02:34:53.030Z,9.70
2018-11-02T02:35:53.009Z,10.60
2018-11-02T02:36:53.089Z,12.00
2018-11-02T02:37:52.958Z,9.40
2018-11-02T02:38:53.000Z,9.40
2018-11-02T02:39:52.917Z,9.50
2018-11-02T02:40:53.017Z,10.90
2018-11-02T02:41:52.851Z,9.60
2018-11-02T02:42:52.918Z,9.80
2018-11-02T02:43:52.807Z,10.10
2018-11-02T02:44:52.831Z,9.80
2018-11-02T02:45:52.752Z,9.80
2018-11-02T02:46:52.863Z,11.10
2018-11-02T02:47:52.696Z,10.40
2018-11-02T02:48:52.766Z,9.70
2018-11-02T02:49:52.644Z,10.60
2018-11-02T02:50:52.626Z,10.20
2018-11-02T02:51:52.588Z,11.30
2018-11-02T02:52:52.643Z,9.90
2018-11-02T02:53:52.537Z,11.00
2018-11-02T02:54:52.550Z,11.10
2018-11-02T02:55:52.491Z,10.70
2018-11-02T02:56:52.611Z,10.40
2018-11-02T02:57:52.444Z,10.40
2018-11-02T02:58:52.517Z,10.10
2018-11-02T02:59:52.387Z,10.20
2018-11-02T03:00:52.437Z,10.40
2018-11-02T03:01:52.349Z,10.60
2018-11-02T03:02:52.455Z,10.10
2018-11-02T03:03:52.283Z,12.40
2018-11-02T03:04:52.308Z,10.90
2018-11-02T03:05:52.228Z,10.40
2018-11-02T03:06:52.209Z,10.30
2018-11-02T03:07:52.190Z,11.10
2018-11-02T03:08:52.278Z,12.00
2018-11-02T03:09:52.127Z,10.60
2018-11-02T03:10:52.298Z,10.40
2018-11-02T03:11:52.089Z,10.40
2018-11-02T03:12:52.218Z,11.30
2018-11-02T03:13:52.020Z,11.90
2018-11-02T03:14:52.129Z,10.00
2018-11-02T03:15:51.971Z,10.40
2018-11-02T03:16:52.028Z,12.90
2018-11-02T03:17:52.046Z,10.90
2018-11-02T03:18:51.988Z,11.40
2018-11-02T03:19:51.949Z,11.20
2018-11-02T03:20:51.846Z,11.20
2018-11-02T03:21:51.980Z,12.50
2018-11-02T03:22:51.788Z,12.30
2018-11-02T03:23:51.766Z,12.30
2018-11-02T03:24:51.888Z,12.50
2018-11-02T03:25:51.719Z,12.80
2018-11-02T03:26:51.807Z,13.00
2018-11-02T03:27:51.658Z,13.10
2018-11-02T03:28:51.819Z,13.00
2018-11-02T03:29:51.614Z,13.30
2018-11-02T03:30:51.732Z,12.80
2018-11-02T03:31:51.557Z,14.00
2018-11-02T03:32:51.656Z,13.80
2018-11-02T03:33:51.508Z,13.80
2018-11-02T03:34:51.482Z,14.40
2018-11-02T03:35:51.564Z,14.50
2018-11-02T03:36:51.434Z,14.10
2018-11-02T03:37:51.576Z,14.00
2018-11-02T03:38:51.477Z,15.10
2018-11-02T03:39:51.349Z,14.40
2018-11-02T03:40:51.489Z,14.60
2018-11-02T03:41:51.316Z,15.50
2018-11-02T03:42:51.401Z,14.90
2018-11-02T03:43:51.252Z,14.80
2018-11-02T03:44:51.230Z,15.70
2018-11-02T03:45:51.227Z,16.00
2018-11-02T03:46:51.177Z,15.00
2018-11-02T03:47:51.339Z,16.60
2018-11-02T03:48:51.114Z,16.80
2018-11-02T03:49:51.096Z,17.30
2018-11-02T03:50:51.058Z,16.40
2018-11-02T03:51:51.157Z,16.50
2018-11-02T03:52:51.008Z,16.70
2018-11-02T03:53:51.168Z,15.90
2018-11-02T03:54:51.078Z,16.10
2018-11-02T03:55:50.929Z,15.80
2018-11-02T03:56:51.163Z,17.00
2018-11-02T03:57:50.878Z,17.00
2018-11-02T03:58:50.997Z,16.30
2018-11-02T03:59:50.828Z,17.10
2018-11-02T04:00:50.838Z,16.20
2018-11-02T04:01:50.918Z,16.00
2018-11-02T04:02:50.756Z,17.00
2018-11-02T04:03:50.932Z,16.90
2018-11-02T04:04:50.698Z,17.50
2018-11-02T04:05:50.670Z,17.80
2018-11-02T04:06:50.639Z,17.20
2018-11-02T04:07:51.785Z,18.90
2018-11-02T04:08:50.597Z,17.10
2018-11-02T04:09:50.767Z,17.80
2018-11-02T04:10:50.539Z,17.50
2018-11-02T04:11:50.683Z,18.00
2018-11-02T04:12:50.488Z,18.00
2018-11-02T04:13:50.593Z,19.40
2018-11-02T04:14:50.437Z,17.90
2018-11-02T04:15:50.612Z,17.90
2018-11-02T04:16:50.377Z,18.20
2018-11-02T04:17:50.447Z,17.40
2018-11-02T04:18:50.334Z,20.70
2018-11-02T04:19:50.328Z,18.60
2018-11-02T04:20:50.281Z,19.10
2018-11-02T04:21:50.248Z,19.80
2018-11-02T04:22:50.237Z,19.20
2018-11-02T04:23:50.261Z,18.70
2018-11-02T04:24:50.168Z,18.50
2018-11-02T04:25:50.269Z,18.80
2018-11-02T04:26:50.124Z,19.10
2018-11-02T04:27:50.181Z,19.30
2018-11-02T04:28:50.070Z,19.90
2018-11-02T04:29:50.092Z,18.10
2018-11-02T04:30:50.096Z,20.50
2018-11-02T04:31:50.110Z,20.30
2018-11-02T04:32:49.960Z,20.10
2018-11-02T04:33:50.021Z,17.60
2018-11-02T04:34:49.925Z,18.60
2018-11-02T04:35:49.929Z,20.10
2018-11-02T04:36:49.860Z,18.30
2018-11-02T04:37:49.832Z,18.00
2018-11-02T04:38:49.857Z,17.20
2018-11-02T04:39:49.779Z,17.90
2018-11-02T04:40:49.860Z,19.80
2018-11-02T04:41:49.730Z,17.10
2018-11-02T04:42:49.779Z,18.30
2018-11-02T04:43:49.677Z,17.70
2018-11-02T04:44:49.788Z,16.30
2018-11-02T04:45:49.622Z,17.70
2018-11-02T04:46:49.704Z,17.40
2018-11-02T04:47:49.577Z,16.50
2018-11-02T04:48:49.542Z,17.30
2018-11-02T04:49:49.529Z,17.10
2018-11-02T04:50:49.687Z,17.40
2018-11-02T04:51:49.458Z,18.20
2018-11-02T04:52:49.538Z,18.70
2018-11-02T04:53:49.509Z,17.90
2018-11-02T04:54:49.392Z,16.20
2018-11-02T04:55:49.458Z,16.80
2018-11-02T04:56:49.330Z,17.00
2018-11-02T04:57:49.369Z,16.70
2018-11-02T04:58:49.288Z,18.90
2018-11-02T04:59:49.378Z,16.60
2018-11-02T05:00:49.228Z,17.30
2018-11-02T05:01:49.296Z,17.30
2018-11-02T05:02:49.182Z,16.10
2018-11-02T05:03:49.326Z,17.60
2018-11-02T05:04:49.216Z,16.60
2018-11-02T05:05:49.108Z,16.90
2018-11-02T05:06:49.235Z,18.70
2018-11-02T05:07:49.048Z,18.10
2018-11-02T05:08:49.144Z,16.90
2018-11-02T05:09:49.177Z,17.30
2018-11-02T05:10:48.969Z,18.20
2018-11-02T05:11:49.059Z,16.40
2018-11-02T05:12:48.911Z,16.50
2018-11-02T05:13:48.979Z,16.70
2018-11-02T05:14:48.869Z,17.00
2018-11-02T05:15:48.980Z,17.30
2018-11-02T05:16:48.807Z,17.40
2018-11-02T05:17:48.897Z,17.30
2018-11-02T05:18:48.758Z,17.40
2018-11-02T05:19:48.811Z,15.90
2018-11-02T05:20:48.821Z,19.60
2018-11-02T05:21:48.696Z,18.50
2018-11-02T05:22:48.732Z,17.30
2018-11-02T05:23:48.619Z,18.00
2018-11-02T05:24:48.746Z,18.50
2018-11-02T05:25:48.756Z,19.60
2018-11-02T05:26:48.549Z,17.60
2018-11-02T05:27:48.663Z,16.80
2018-11-02T05:28:48.501Z,20.90
2018-11-02T05:29:48.571Z,18.30
2018-11-02T05:30:48.451Z,18.60
2018-11-02T05:31:48.413Z,15.90
2018-11-02T05:32:48.489Z,19.40
2018-11-02T05:33:48.359Z,16.50
2018-11-02T05:34:48.499Z,16.80
2018-11-02T05:35:48.313Z,19.10
2018-11-02T05:36:48.278Z,17.80
2018-11-02T05:37:48.420Z,18.20
2018-11-02T05:38:48.237Z,16.50
2018-11-02T05:39:48.330Z,18.50
2018-11-02T05:40:48.179Z,19.00
2018-11-02T05:41:48.150Z,19.20
2018-11-02T05:42:48.129Z,17.60
2018-11-02T05:43:48.264Z,18.60
2018-11-02T05:44:48.069Z,18.80
2018-11-02T05:45:48.172Z,17.00
2018-11-02T05:46:48.022Z,18.80
2018-11-02T05:47:47.990Z,18.10
2018-11-02T05:48:48.123Z,17.30
2018-11-02T05:49:47.942Z,18.80
2018-11-02T05:50:48.105Z,16.50
2018-11-02T05:51:47.890Z,18.80
2018-11-02T05:52:47.859Z,18.30
2018-11-02T05:53:47.829Z,18.60
2018-11-02T05:54:47.932Z,17.80
2018-11-02T05:55:47.783Z,18.70
2018-11-02T05:56:47.839Z,17.70
2018-11-02T05:57:47.847Z,17.50
2018-11-02T05:58:47.698Z,17.40
2018-11-02T05:59:47.759Z,19.10
2018-11-02T06:00:47.649Z,17.30
2018-11-02T06:01:47.700Z,19.50
2018-11-02T06:02:47.610Z,20.30
2018-11-02T06:03:47.572Z,19.10
2018-11-02T06:04:47.596Z,16.60
2018-11-02T06:05:47.520Z,18.40
2018-11-02T06:06:47.607Z,19.20
2018-11-02T06:07:47.542Z,18.80
2018-11-02T06:08:47.439Z,18.00
2018-11-02T06:09:47.420Z,17.50
2018-11-02T06:10:47.427Z,17.50
2018-11-02T06:11:47.365Z,18.70
2018-11-02T06:12:47.446Z,19.20
2018-11-02T06:13:47.341Z,18.10
2018-11-02T06:14:47.282Z,16.50
2018-11-02T06:15:47.358Z,17.50
2018-11-02T06:16:47.265Z,18.90
2018-11-02T06:17:47.271Z,18.60
2018-11-02T06:18:47.181Z,19.10
2018-11-02T06:19:47.149Z,18.90
2018-11-02T06:20:47.195Z,20.10
2018-11-02T06:21:47.134Z,19.30
2018-11-02T06:22:47.107Z,17.70
2018-11-02T06:23:47.039Z,18.40
2018-11-02T06:24:47.033Z,19.20
2018-11-02T06:25:47.008Z,16.60
2018-11-02T06:26:47.029Z,20.60
2018-11-02T06:27:46.946Z,17.70
2018-11-02T06:28:46.943Z,16.60
2018-11-02T06:29:46.887Z,17.60
2018-11-02T06:30:47.032Z,18.00
2018-11-02T06:31:46.840Z,17.00
2018-11-02T06:32:47.018Z,18.10
2018-11-02T06:33:46.850Z,19.10
2018-11-02T06:34:46.778Z,18.00
2018-11-02T06:35:46.737Z,16.30
2018-11-02T06:36:46.788Z,18.40
2018-11-02T06:37:46.683Z,18.70
2018-11-02T06:38:46.847Z,19.00
2018-11-02T06:39:46.623Z,18.80
2018-11-02T06:40:46.600Z,16.00
2018-11-02T06:41:46.637Z,16.30
2018-11-02T06:42:46.547Z,16.10
2018-11-02T06:43:46.544Z,17.40
2018-11-02T06:44:46.497Z,20.00
2018-11-02T06:45:46.459Z,20.50
2018-11-02T06:46:46.437Z,17.30
2018-11-02T06:47:46.488Z,19.10
2018-11-02T06:48:46.378Z,16.60
2018-11-02T06:49:46.479Z,16.60
2018-11-02T06:50:46.368Z,17.50
2018-11-02T06:51:46.324Z,18.50
2018-11-02T06:52:46.396Z,17.20
2018-11-02T06:53:46.249Z,17.90
2018-11-02T06:54:46.300Z,16.50
2018-11-02T06:55:46.200Z,18.20
2018-11-02T06:56:46.163Z,17.10
2018-11-02T06:57:46.139Z,17.50
2018-11-02T06:58:46.228Z,20.10
2018-11-02T06:59:46.329Z,18.10
2018-11-02T07:00:46.163Z,20.60
2018-11-02T07:01:46.049Z,15.50
2018-11-02T07:02:46.058Z,17.00
2018-11-02T07:03:46.001Z,17.70
2018-11-02T07:04:46.087Z,18.10
2018-11-02T07:05:45.929Z,18.00
2018-11-02T07:06:45.975Z,17.40
2018-11-02T07:07:45.959Z,17.40
2018-11-02T07:08:45.889Z,15.30
2018-11-02T07:09:45.824Z,18.60
2018-11-02T07:10:45.903Z,18.70
2018-11-02T07:11:45.770Z,17.10
2018-11-02T07:12:45.741Z,17.50
2018-11-02T07:13:45.721Z,18.30
2018-11-02T07:14:45.723Z,18.30
2018-11-02T07:15:45.669Z,18.50
2018-11-02T07:16:45.748Z,17.70
2018-11-02T07:17:45.602Z,17.70
2018-11-02T07:18:45.649Z,17.00
2018-11-02T07:19:45.565Z,17.40
2018-11-02T07:20:45.593Z,16.80
2018-11-02T07:21:45.497Z,19.00
2018-11-02T07:22:45.578Z,18.00
2018-11-02T07:23:45.466Z,19.70
2018-11-02T07:24:45.499Z,17.70
2018-11-02T07:25:45.401Z,18.60
2018-11-02T07:26:45.399Z,17.40
2018-11-02T07:27:45.353Z,19.00
2018-11-02T07:28:45.319Z,18.00
2018-11-02T07:29:45.290Z,19.30
2018-11-02T07:30:45.320Z,18.20
2018-11-02T07:31:45.239Z,18.60
2018-11-02T07:32:45.251Z,17.60
2018-11-02T07:33:45.239Z,19.70
2018-11-02T07:34:45.160Z,18.70
2018-11-02T07:35:45.149Z,19.60
2018-11-02T07:36:45.101Z,18.20
2018-11-02T07:37:45.169Z,18.50
2018-11-02T07:38:45.055Z,16.70
2018-11-02T07:39:45.029Z,17.50
2018-11-02T07:40:45.091Z,18.10
2018-11-02T07:41:44.970Z,20.10
2018-11-02T07:42:45.001Z,19.50
2018-11-02T07:43:44.920Z,18.50
2018-11-02T07:44:44.888Z,22.10
2018-11-02T07:45:44.920Z,19.30
2018-11-02T07:46:44.845Z,17.00
2018-11-02T07:47:44.906Z,19.00
2018-11-02T07:48:44.791Z,20.00
2018-11-02T07:49:44.817Z,18.60
2018-11-02T07:50:44.765Z,21.80
2018-11-02T07:51:44.760Z,19.90
2018-11-02T07:52:44.680Z,17.70
2018-11-02T07:53:44.668Z,19.70
2018-11-02T07:54:44.629Z,20.20
2018-11-02T07:55:44.600Z,17.50
2018-11-02T07:56:44.613Z,17.70
2018-11-02T07:57:44.553Z,19.80
2018-11-02T07:58:44.615Z,20.40
2018-11-02T07:59:44.489Z,20.20
2018-11-02T08:00:44.459Z,19.10
2018-11-02T08:01:44.484Z,19.70
2018-11-02T08:02:44.531Z,20.40
2018-11-02T08:03:44.394Z,18.60
2018-11-02T08:04:44.440Z,18.20
2018-11-02T08:05:44.330Z,16.80
2018-11-02T08:06:44.360Z,19.20
2018-11-02T08:07:44.281Z,19.30
2018-11-02T08:08:44.359Z,19.70
2018-11-02T08:09:44.219Z,23.70
2018-11-02T08:10:44.280Z,18.90
2018-11-02T08:11:44.308Z,20.60
2018-11-02T08:12:44.193Z,18.90
2018-11-02T08:13:44.120Z,18.00
2018-11-02T08:14:44.199Z,21.10
2018-11-02T08:15:44.059Z,19.50
2018-11-02T08:16:44.041Z,20.00
2018-11-02T08:17:44.095Z,18.40
2018-11-02T08:18:44.025Z,18.40
2018-11-02T08:19:43.961Z,19.30
2018-11-02T08:20:44.100Z,18.50
2018-11-02T08:21:51.259Z,17.60
2018-11-02T08:23:36.848Z,21.10
2018-11-02T08:24:36.847Z,21.50
2018-11-02T08:26:29.699Z,19.40
2018-11-02T08:27:29.681Z,16.30
2018-11-02T08:29:22.548Z,17.50
2018-11-02T08:30:22.450Z,19.10
2018-11-02T08:32:15.546Z,15.90
2018-11-02T08:33:15.298Z,18.50
2018-11-02T08:35:08.363Z,17.70
2018-11-02T08:36:08.259Z,18.10
2018-11-02T08:38:01.152Z,17.70
2018-11-02T08:39:01.120Z,16.00
2018-11-02T08:40:55.089Z,17.50
2018-11-02T08:41:54.992Z,19.20
2018-11-02T08:43:48.052Z,17.90
2018-11-02T08:44:47.940Z,19.10
2018-11-02T08:46:41.146Z,17.20
2018-11-02T08:47:40.902Z,17.90
2018-11-02T08:49:33.963Z,16.10
2018-11-02T08:50:33.859Z,17.80
2018-11-02T08:52:27.066Z,20.10
2018-11-02T08:53:26.809Z,16.10
2018-11-02T08:54:26.779Z,19.40
2018-11-02T08:55:26.911Z,17.90
2018-11-02T08:56:26.733Z,17.20
2018-11-02T08:57:26.828Z,18.60
2018-11-02T08:58:26.915Z,17.20
2018-11-02T08:59:26.816Z,16.20
2018-11-02T09:00:26.635Z,17.20
2018-11-02T09:01:26.749Z,17.30
2018-11-02T09:02:26.581Z,18.00
2018-11-02T09:03:26.657Z,19.90
2018-11-02T09:04:26.538Z,17.40
2018-11-02T09:05:26.512Z,17.90
2018-11-02T09:06:26.580Z,15.50
2018-11-02T09:07:26.458Z,16.70
2018-11-02T09:08:26.594Z,16.20
2018-11-02T09:09:26.408Z,15.90
2018-11-02T09:10:26.395Z,17.70
2018-11-02T09:11:26.510Z,17.10
2018-11-02T09:12:26.351Z,15.20
2018-11-02T09:13:26.419Z,14.30
2018-11-02T09:14:26.300Z,15.40
2018-11-02T09:15:26.283Z,15.40
2018-11-02T09:16:26.267Z,14.30
2018-11-02T09:17:26.348Z,16.50
2018-11-02T09:18:26.252Z,13.60
2018-11-02T09:19:26.408Z,16.10
2018-11-02T09:20:26.175Z,17.30
2018-11-02T09:21:26.158Z,13.50
2018-11-02T09:22:26.318Z,14.20
2018-11-02T09:23:26.118Z,14.40
2018-11-02T09:24:26.188Z,15.20
2018-11-02T09:25:26.064Z,16.20
2018-11-02T09:26:26.043Z,15.10
2018-11-02T09:27:26.130Z,14.50
2018-11-02T09:28:25.998Z,17.40
2018-11-02T09:29:26.037Z,14.30
2018-11-02T09:30:25.959Z,14.10
2018-11-02T09:31:25.938Z,14.00
2018-11-02T09:32:25.925Z,13.40
2018-11-02T09:33:25.947Z,14.70
2018-11-02T09:34:25.895Z,12.40
2018-11-02T09:35:25.961Z,13.10
2018-11-02T09:36:25.851Z,12.30
2018-11-02T09:37:25.828Z,12.90
2018-11-02T09:38:25.878Z,11.60
2018-11-02T09:39:25.799Z,12.40
2018-11-02T09:40:26.011Z,12.10
2018-11-02T09:41:25.761Z,12.90
2018-11-02T09:42:25.781Z,12.70
2018-11-02T09:43:25.815Z,11.70
2018-11-02T09:44:25.718Z,12.70
2018-11-02T09:45:25.737Z,13.00
2018-11-02T09:46:25.697Z,11.80
2018-11-02T09:47:25.672Z,11.90
2018-11-02T09:48:25.658Z,14.30
2018-11-02T09:49:25.751Z,11.30
2018-11-02T09:50:25.629Z,11.00
2018-11-02T09:51:25.687Z,12.80
2018-11-02T09:52:25.599Z,11.30
2018-11-02T09:53:25.677Z,12.10
2018-11-02T09:54:25.562Z,12.80
2018-11-02T09:55:25.589Z,13.30
2018-11-02T09:56:25.528Z,11.70
2018-11-02T09:57:25.663Z,12.30
2018-11-02T09:58:25.499Z,12.10
2018-11-02T09:59:25.526Z,11.20
2018-11-02T10:00:25.476Z,11.50
2018-11-02T10:01:25.529Z,13.20
2018-11-02T10:02:25.440Z,11.60
2018-11-02T10:03:25.424Z,11.80
2018-11-02T10:04:25.407Z,14.00
2018-11-02T10:05:25.461Z,11.10
2018-11-02T10:06:25.376Z,13.80
2018-11-02T10:07:25.369Z,12.30
2018-11-02T10:08:25.367Z,13.60
2018-11-02T10:09:25.380Z,12.00
2018-11-02T10:10:25.364Z,12.70
2018-11-02T10:11:25.402Z,10.30
2018-11-02T10:12:25.269Z,10.60
2018-11-02T10:13:25.309Z,13.10
2018-11-02T10:14:25.318Z,13.20
2018-11-02T10:15:25.219Z,12.80
2018-11-02T10:16:25.229Z,12.00
2018-11-02T10:17:25.188Z,12.40
2018-11-02T10:18:25.238Z,10.30
2018-11-02T10:19:25.248Z,10.60
2018-11-02T10:20:25.151Z,9.60
2018-11-02T10:21:25.167Z,9.80
2018-11-02T10:22:25.120Z,10.90
2018-11-02T10:23:25.167Z,9.90
2018-11-02T10:24:25.089Z,8.20
2018-11-02T10:25:25.189Z,8.80
2018-11-02T10:26:25.063Z,8.40
2018-11-02T10:27:25.099Z,7.60
2018-11-02T10:28:25.048Z,7.30
2018-11-02T10:29:25.118Z,8.30
2018-11-02T10:30:25.015Z,10.00
2018-11-02T10:31:25.040Z,8.10
2018-11-02T10:32:24.988Z,7.10
2018-11-02T10:33:25.037Z,7.30
2018-11-02T10:34:24.972Z,7.60
2018-11-02T10:35:24.999Z,7.90
2018-11-02T10:36:24.948Z,7.00
2018-11-02T10:37:24.968Z,5.70
2018-11-02T10:38:24.921Z,6.20
2018-11-02T10:39:25.021Z,6.90
2018-11-02T10:40:24.908Z,7.50
2018-11-02T10:41:24.988Z,7.40
2018-11-02T10:42:24.881Z,6.10
2018-11-02T10:43:24.922Z,7.90
2018-11-02T10:44:24.935Z,5.60
2018-11-02T10:45:24.933Z,6.00
2018-11-02T10:46:24.848Z,6.60
2018-11-02T10:47:24.928Z,7.90
2018-11-02T10:48:24.808Z,6.20
2018-11-02T10:49:24.926Z,6.40
2018-11-02T10:50:24.789Z,7.10
2018-11-02T10:51:24.778Z,7.30
2018-11-02T10:52:24.777Z,5.90
2018-11-02T10:53:24.886Z,6.60
2018-11-02T10:54:24.783Z,7.30
2018-11-02T10:55:24.797Z,6.80
2018-11-02T10:56:24.733Z,7.10
2018-11-02T10:57:24.821Z,5.20
2018-11-02T10:58:24.697Z,6.70
2018-11-02T10:59:24.709Z,6.10
2018-11-02T11:00:24.683Z,5.80
2018-11-02T11:01:24.850Z,5.30
2018-11-02T11:02:24.652Z,5.20
2018-11-02T11:03:24.740Z,5.20
2018-11-02T11:04:24.628Z,6.70
2018-11-02T11:05:24.739Z,5.80
2018-11-02T11:06:24.608Z,5.90
2018-11-02T11:07:24.592Z,6.70
2018-11-02T11:08:24.579Z,6.60
2018-11-02T11:09:24.585Z,6.80
2018-11-02T11:10:24.553Z,6.30
2018-11-02T11:11:24.647Z,5.10
2018-11-02T11:12:24.685Z,7.30
2018-11-02T11:13:24.915Z,7.70
2018-11-02T11:14:24.485Z,6.50
2018-11-02T11:15:24.521Z,6.60
2018-11-02T11:16:24.453Z,6.40
2018-11-02T11:17:24.533Z,6.50
2018-11-02T11:18:24.418Z,6.20
2018-11-02T11:19:24.440Z,7.70
2018-11-02T11:20:24.380Z,6.40
2018-11-02T11:21:24.566Z,8.50
2018-11-02T11:22:24.350Z,8.40
2018-11-02T11:23:24.332Z,7.40
2018-11-02T11:24:24.310Z,6.70
2018-11-02T11:25:24.380Z,7.80
2018-11-02T11:26:24.270Z,6.50
2018-11-02T11:27:24.289Z,6.90
2018-11-02T11:28:24.229Z,7.90
2018-11-02T11:29:24.300Z,6.70
2018-11-02T11:30:24.211Z,7.60
2018-11-02T11:31:24.170Z,7.00
2018-11-02T11:32:24.242Z,6.60
2018-11-02T11:33:24.139Z,7.20
2018-11-02T11:34:24.110Z,7.20
2018-11-02T11:35:24.100Z,7.00
2018-11-02T11:36:24.159Z,6.60
2018-11-02T11:37:24.093Z,6.20
2018-11-02T11:38:24.062Z,7.20
2018-11-02T11:39:24.084Z,5.60
2018-11-02T11:40:24.079Z,7.80
2018-11-02T11:41:23.999Z,6.20
2018-11-02T11:42:23.998Z,3.90
2018-11-02T11:43:23.963Z,4.60
2018-11-02T11:44:24.019Z,5.60
2018-11-02T11:45:23.934Z,5.10
2018-11-02T11:46:24.031Z,3.90
2018-11-02T11:47:23.899Z,4.30
2018-11-02T11:48:23.951Z,5.80
2018-11-02T11:49:23.870Z,6.10
2018-11-02T11:50:23.860Z,5.40
2018-11-02T11:51:23.861Z,5.60
2018-11-02T11:52:24.893Z,5.10
2018-11-02T11:53:23.828Z,4.90
2018-11-02T11:54:23.897Z,5.30
2018-11-02T11:55:23.803Z,5.70
2018-11-02T11:56:23.888Z,4.80
2018-11-02T11:57:23.781Z,4.70
2018-11-02T11:58:23.810Z,5.00
2018-11-02T11:59:23.755Z,5.70
2018-11-02T12:00:23.742Z,5.00
2018-11-02T12:01:23.728Z,3.70
2018-11-02T12:02:23.885Z,4.20
2018-11-02T12:03:23.699Z,4.80
2018-11-02T12:04:23.795Z,5.50
2018-11-02T12:05:23.689Z,4.50
2018-11-02T12:06:23.739Z,4.60
2018-11-02T12:07:23.661Z,5.30
2018-11-02T12:08:23.670Z,5.40
2018-11-02T12:09:23.629Z,3.50
2018-11-02T12:10:23.760Z,3.40
2018-11-02T12:11:23.600Z,6.30
2018-11-02T12:12:23.689Z,3.70
2018-11-02T12:13:23.575Z,4.20
2018-11-02T12:14:23.611Z,4.20
2018-11-02T12:15:23.551Z,2.40
2018-11-02T12:16:23.540Z,4.70
2018-11-02T12:17:23.528Z,4.40
2018-11-02T12:18:23.542Z,3.10
2018-11-02T12:19:23.491Z,4.90
2018-11-02T12:20:23.548Z,4.20
2018-11-02T12:21:23.509Z,5.00
2018-11-02T12:22:23.561Z,3.70
2018-11-02T12:23:23.491Z,3.40
2018-11-02T12:24:23.473Z,4.30
2018-11-02T12:25:23.408Z,4.80
2018-11-02T12:26:23.489Z,4.10
2018-11-02T12:27:23.388Z,4.50
2018-11-02T12:28:23.407Z,4.10
2018-11-02T12:29:23.355Z,3.70
2018-11-02T12:30:23.412Z,2.70
2018-11-02T12:31:23.309Z,5.50
2018-11-02T12:32:23.299Z,3.20
2018-11-02T12:33:23.282Z,4.30
2018-11-02T12:34:23.340Z,4.70
2018-11-02T12:35:23.252Z,4.40
2018-11-02T12:36:23.250Z,4.00
2018-11-02T12:37:23.214Z,4.90
2018-11-02T12:38:23.259Z,4.80
2018-11-02T12:39:23.181Z,3.20
2018-11-02T12:40:23.286Z,5.30
2018-11-02T12:41:23.157Z,4.00
2018-11-02T12:42:23.189Z,3.60
2018-11-02T12:43:23.211Z,3.40
2018-11-02T12:44:23.203Z,3.80
2018-11-02T12:45:23.080Z,4.30
2018-11-02T12:46:23.118Z,3.80
2018-11-02T12:47:23.048Z,3.90
2018-11-02T12:48:23.123Z,3.20
2018-11-02T12:49:23.445Z,4.10
2018-11-02T12:50:23.242Z,5.60
2018-11-02T12:51:22.982Z,4.20
2018-11-02T12:52:23.050Z,4.80
2018-11-02T12:53:22.939Z,4.30
2018-11-02T12:54:22.927Z,5.10
2018-11-02T12:55:22.968Z,4.10
2018-11-02T12:56:22.889Z,3.40
2018-11-02T12:57:23.041Z,4.30
2018-11-02T12:58:22.852Z,3.50
2018-11-02T12:59:22.842Z,3.80
2018-11-02T13:00:22.906Z,3.60
2018-11-02T13:01:22.813Z,4.60
2018-11-02T13:02:22.822Z,3.60
2018-11-02T13:03:22.759Z,4.20
2018-11-02T13:04:22.749Z,2.70
2018-11-02T13:05:22.719Z,4.90
2018-11-02T13:06:22.739Z,3.30
2018-11-02T13:07:22.681Z,3.00
2018-11-02T13:08:22.768Z,4.50
2018-11-02T13:09:22.685Z,6.10
2018-11-02T13:10:22.683Z,6.20
2018-11-02T13:11:22.604Z,2.80
2018-11-02T13:12:22.679Z,5.40
2018-11-02T13:13:22.559Z,3.70
2018-11-02T13:14:22.591Z,3.30